Time;durP1;ratioP1;P1;durP2;ratioP2;P2;SDS_P1;SDS_P2;PMS_P1;PMS_P2;Temp;Humidity;BMP_temperature;BMP_pressure;BME280_temperature;BME280_humidity;BME280_pressure;Samples;Min_cycle;Max_cycle;Signal;HPM_P1;HPM_P2
2021/05/30 00:00:26;;;;;;;24.23;11.52;;;10.20;99.90;;;;;;5033968;28;20435;-63
2021/05/30 00:02:52;;;;;;;25.15;11.85;;;10.10;99.90;;;;;;5034221;28;20028;-63
2021/05/30 00:05:18;;;;;;;19.33;9.07;;;10.10;99.90;;;;;;5033430;28;20035;-63
2021/05/30 00:07:44;;;;;;;20.92;10.85;;;10.00;99.90;;;;;;5034822;28;20037;-63
2021/05/30 00:10:10;;;;;;;19.17;10.85;;;10.00;99.90;;;;;;5035776;28;20175;-63
2021/05/30 00:12:36;;;;;;;20.08;9.85;;;10.00;99.90;;;;;;5035624;28;20045;-63
2021/05/30 00:15:05;;;;;;;26.65;11.55;;;9.90;99.90;;;;;;5035091;28;20124;-62
2021/05/30 00:17:31;;;;;;;20.67;9.90;;;10.00;99.90;;;;;;5031618;28;20136;-63
2021/05/30 00:19:56;;;;;;;19.75;10.63;;;9.90;99.90;;;;;;5035690;28;20453;-63
2021/05/30 00:22:22;;;;;;;25.95;10.25;;;9.90;99.90;;;;;;5033329;28;20037;-62
2021/05/30 00:24:48;;;;;;;27.95;11.57;;;10.00;99.90;;;;;;5035360;28;20041;-63
2021/05/30 00:27:14;;;;;;;20.70;11.60;;;10.00;99.90;;;;;;5031753;28;20571;-63
2021/05/30 00:29:39;;;;;;;27.38;12.43;;;10.00;99.90;;;;;;5035645;28;20563;-63
2021/05/30 00:32:06;;;;;;;21.95;10.63;;;10.00;99.90;;;;;;5034779;28;20044;-63
2021/05/30 00:34:31;;;;;;;16.45;10.50;;;9.90;99.90;;;;;;5035426;28;20579;-63
2021/05/30 00:36:57;;;;;;;24.20;11.23;;;9.90;99.90;;;;;;5034769;28;20033;-63
2021/05/30 00:39:23;;;;;;;23.75;11.15;;;9.80;99.90;;;;;;5032429;28;20037;-63
2021/05/30 00:41:49;;;;;;;22.83;11.23;;;9.80;99.90;;;;;;5016786;28;20025;-63
2021/05/30 00:44:26;;;;;;;25.15;11.77;;;9.70;99.90;;;;;;5034332;28;20255;-63
2021/05/30 00:46:53;;;;;;;19.00;9.40;;;9.70;99.90;;;;;;5033753;28;20055;-63
2021/05/30 00:49:20;;;;;;;24.50;11.57;;;9.60;99.90;;;;;;5032744;28;20658;-63
2021/05/30 00:51:46;;;;;;;22.70;11.85;;;9.60;99.90;;;;;;5034822;28;20036;-63
2021/05/30 00:54:13;;;;;;;19.70;10.88;;;9.60;99.90;;;;;;5036260;28;20589;-62
2021/05/30 00:56:40;;;;;;;23.58;13.10;;;9.60;99.90;;;;;;5032100;28;20112;-63
2021/05/30 00:59:08;;;;;;;19.40;11.20;;;9.60;99.90;;;;;;5034130;28;20099;-63
2021/05/30 01:01:34;;;;;;;22.40;12.38;;;9.70;99.90;;;;;;5035171;28;20056;-63
2021/05/30 01:04:00;;;;;;;20.52;10.60;;;9.70;99.90;;;;;;5031728;28;20082;-63
2021/05/30 01:06:27;;;;;;;26.42;13.02;;;9.70;99.90;;;;;;5034604;28;20065;-63
2021/05/30 01:08:53;;;;;;;28.52;13.50;;;9.70;99.90;;;;;;5032479;28;20025;-62
2021/05/30 01:11:22;;;;;;;23.90;12.82;;;9.70;99.90;;;;;;5033224;28;20040;-62
2021/05/30 01:13:52;;;;;;;25.75;13.48;;;9.70;99.90;;;;;;5034267;28;20504;-63
2021/05/30 01:16:19;;;;;;;22.83;12.50;;;9.70;99.90;;;;;;5033433;28;20037;-63
2021/05/30 01:18:47;;;;;;;30.15;13.40;;;9.70;99.90;;;;;;5033801;28;20041;-63
2021/05/30 01:21:13;;;;;;;27.38;14.43;;;9.70;99.90;;;;;;5034163;28;20090;-63
2021/05/30 01:23:40;;;;;;;27.88;14.88;;;9.70;99.90;;;;;;5034327;28;20062;-63
2021/05/30 01:26:06;;;;;;;32.03;15.40;;;9.70;99.90;;;;;;5032329;28;20554;-63
2021/05/30 01:28:31;;;;;;;27.35;14.68;;;9.70;99.90;;;;;;5034555;28;20037;-63
2021/05/30 01:30:57;;;;;;;31.17;15.00;;;9.70;99.90;;;;;;5035096;28;20490;-63
2021/05/30 01:33:23;;;;;;;25.45;13.95;;;9.60;99.90;;;;;;5038173;28;20033;-63
2021/05/30 01:35:49;;;;;;;23.67;12.02;;;9.60;99.90;;;;;;5021104;28;20521;-63
2021/05/30 01:38:15;;;;;;;16.38;11.20;;;9.50;99.90;;;;;;5036563;28;20032;-63
2021/05/30 01:40:42;;;;;;;24.35;13.25;;;9.40;99.90;;;;;;5038153;28;20032;-63
2021/05/30 01:43:08;;;;;;;21.90;12.70;;;9.40;99.90;;;;;;5038968;28;20119;-63
2021/05/30 01:45:34;;;;;;;29.30;13.25;;;9.40;99.90;;;;;;5037815;28;20200;-63
2021/05/30 01:48:01;;;;;;;22.02;13.10;;;9.30;99.90;;;;;;5036291;28;20025;-63
2021/05/30 01:50:30;;;;;;;28.30;14.85;;;9.30;99.90;;;;;;5038449;28;20082;-63
2021/05/30 01:52:59;;;;;;;21.55;13.15;;;9.40;99.90;;;;;;5035366;28;20513;-63
2021/05/30 01:55:28;;;;;;;28.02;12.73;;;9.30;99.90;;;;;;5038442;28;20113;-63
2021/05/30 01:57:56;;;;;;;21.80;12.02;;;9.30;99.90;;;;;;5035502;28;20041;-62
2021/05/30 02:00:23;;;;;;;24.88;13.20;;;9.40;99.90;;;;;;5033152;28;20080;-63
2021/05/30 02:02:53;;;;;;;40.08;14.65;;;9.50;99.90;;;;;;5038553;28;20033;-63
2021/05/30 02:05:20;;;;;;;33.95;14.85;;;9.60;99.90;;;;;;5037465;28;20071;-63
2021/05/30 02:07:48;;;;;;;37.15;13.85;;;9.60;99.90;;;;;;5035478;28;20143;-63
2021/05/30 02:10:15;;;;;;;27.83;14.02;;;9.60;99.90;;;;;;5036703;28;20653;-63
2021/05/30 02:12:45;;;;;;;31.75;13.95;;;9.60;99.90;;;;;;5035766;28;20217;-63
2021/05/30 02:15:11;;;;;;;31.15;13.50;;;9.60;99.90;;;;;;5038978;28;20033;-63
2021/05/30 02:17:38;;;;;;;32.65;15.27;;;9.60;99.90;;;;;;5035863;28;20514;-63
2021/05/30 02:20:06;;;;;;;33.80;15.50;;;9.60;99.90;;;;;;5036030;28;20017;-63
2021/05/30 02:22:32;;;;;;;25.92;14.70;;;9.60;99.90;;;;;;5032925;28;20044;-63
2021/05/30 02:24:58;;;;;;;29.48;12.82;;;9.60;99.90;;;;;;5036276;28;20365;-63
2021/05/30 02:27:25;;;;;;;28.70;13.18;;;9.50;99.90;;;;;;5037384;28;20841;-63
2021/05/30 02:29:51;;;;;;;28.35;13.68;;;9.50;99.90;;;;;;5034370;28;20135;-63
2021/05/30 02:32:17;;;;;;;26.80;13.77;;;9.50;99.90;;;;;;5036069;28;20508;-63
2021/05/30 02:34:43;;;;;;;28.05;14.00;;;9.50;99.90;;;;;;5037581;28;20063;-63
2021/05/30 02:37:11;;;;;;;32.72;14.13;;;9.50;99.90;;;;;;5035350;28;20035;-63
2021/05/30 02:39:37;;;;;;;22.25;11.93;;;9.50;99.90;;;;;;5035411;28;20048;-63
2021/05/30 02:42:04;;;;;;;32.92;14.15;;;9.40;99.90;;;;;;5037138;28;20028;-64
2021/05/30 02:44:30;;;;;;;28.02;14.32;;;9.40;99.90;;;;;;5037151;28;20641;-63
2021/05/30 02:46:56;;;;;;;28.83;15.32;;;9.40;99.90;;;;;;5033065;28;20045;-63
2021/05/30 02:49:22;;;;;;;39.92;15.98;;;9.40;99.90;;;;;;5036101;28;20029;-63
2021/05/30 02:51:48;;;;;;;27.90;13.63;;;9.40;99.90;;;;;;5019292;28;20578;-64
2021/05/30 02:54:13;;;;;;;29.33;15.82;;;9.40;99.90;;;;;;5036279;28;20026;-63
2021/05/30 02:56:40;;;;;;;25.67;15.38;;;9.40;99.90;;;;;;5035716;28;20028;-64
2021/05/30 02:59:06;;;;;;;28.08;14.85;;;9.40;99.90;;;;;;5036205;28;20490;-63
2021/05/30 03:01:32;;;;;;;26.85;13.48;;;9.40;99.90;;;;;;5035279;28;20021;-64
2021/05/30 03:03:58;;;;;;;28.13;14.07;;;9.40;99.90;;;;;;5036792;28;20040;-63
2021/05/30 03:06:24;;;;;;;22.60;12.15;;;9.30;99.90;;;;;;5033587;28;20025;-63
2021/05/30 03:08:53;;;;;;;21.98;13.15;;;9.20;99.90;;;;;;5036132;28;20104;-63
2021/05/30 03:11:20;;;;;;;21.55;12.95;;;9.20;99.90;;;;;;5034012;28;20033;-63
2021/05/30 03:13:47;;;;;;;25.10;13.77;;;9.20;99.90;;;;;;5035896;28;20044;-63
2021/05/30 03:16:13;;;;;;;27.58;13.93;;;9.20;99.90;;;;;;5034746;28;20041;-63
2021/05/30 03:18:38;;;;;;;21.13;12.80;;;9.20;99.90;;;;;;5036719;28;20043;-63
2021/05/30 03:21:04;;;;;;;22.27;12.52;;;9.20;99.90;;;;;;5036335;28;21045;-63
2021/05/30 03:23:30;;;;;;;29.45;13.40;;;9.20;99.90;;;;;;5036206;28;20052;-63
2021/05/30 03:25:56;;;;;;;31.60;14.93;;;9.20;99.90;;;;;;5033648;28;20032;-63
2021/05/30 03:28:22;;;;;;;26.70;14.52;;;9.10;99.90;;;;;;5035034;28;20033;-63
2021/05/30 03:30:47;;;;;;;28.17;12.70;;;9.00;99.90;;;;;;5035943;28;20207;-63
2021/05/30 03:33:13;;;;;;;28.83;12.55;;;9.00;99.90;;;;;;5034783;28;20029;-62
2021/05/30 03:35:39;;;;;;;25.38;13.07;;;9.00;99.90;;;;;;5035616;28;20024;-63
2021/05/30 03:38:08;;;;;;;27.90;13.45;;;9.00;99.90;;;;;;5035835;28;20401;-63
2021/05/30 03:40:43;;;;;;;34.37;14.43;;;9.00;99.90;;;;;;5036510;28;20111;-63
2021/05/30 03:43:09;;;;;;;28.00;13.43;;;9.10;99.90;;;;;;5036230;28;20465;-63
2021/05/30 03:45:35;;;;;;;26.85;14.85;;;9.10;99.90;;;;;;5013913;28;20033;-63
2021/05/30 03:48:02;;;;;;;27.73;13.30;;;9.20;99.90;;;;;;5033802;28;20025;-63
2021/05/30 03:50:28;;;;;;;25.55;12.32;;;9.20;99.90;;;;;;5035127;28;20029;-63
2021/05/30 03:52:54;;;;;;;25.27;12.77;;;9.20;99.90;;;;;;5035061;28;20028;-63
2021/05/30 03:55:20;;;;;;;24.08;12.35;;;9.20;99.90;;;;;;5036096;28;20315;-63
2021/05/30 03:57:47;;;;;;;22.95;11.40;;;9.30;99.90;;;;;;5032587;28;20106;-63
2021/05/30 04:00:16;;;;;;;21.02;11.82;;;9.40;99.90;;;;;;5025530;28;20029;-63
2021/05/30 04:02:42;;;;;;;20.35;12.48;;;9.50;99.90;;;;;;5031208;28;20032;-63
2021/05/30 04:05:09;;;;;;;28.23;11.68;;;9.60;99.90;;;;;;5034410;28;20080;-63
2021/05/30 04:07:38;;;;;;;24.98;12.15;;;9.70;99.90;;;;;;5035056;28;20128;-63
2021/05/30 04:10:07;;;;;;;26.02;11.82;;;9.80;99.90;;;;;;5032851;28;20094;-63
2021/05/30 04:12:40;;;;;;;27.55;12.52;;;10.00;99.90;;;;;;5034806;28;20489;-64
2021/05/30 04:15:08;;;;;;;23.23;12.02;;;10.10;99.90;;;;;;5033496;28;20502;-64
2021/05/30 04:17:35;;;;;;;25.65;13.10;;;10.30;99.90;;;;;;5035256;28;20040;-63
2021/05/30 04:20:01;;;;;;;25.95;12.45;;;10.50;99.90;;;;;;5033575;28;20025;-63
2021/05/30 04:22:27;;;;;;;29.85;13.00;;;10.60;99.90;;;;;;5033933;28;20141;-63
2021/05/30 04:24:53;;;;;;;20.83;12.25;;;10.80;99.90;;;;;;5034089;28;20133;-63
2021/05/30 04:27:19;;;;;;;25.65;11.88;;;10.80;99.90;;;;;;5031586;28;20033;-64
2021/05/30 04:29:45;;;;;;;32.10;12.15;;;11.00;99.90;;;;;;5034580;28;20138;-63
2021/05/30 04:32:10;;;;;;;31.67;12.48;;;11.10;99.90;;;;;;5023328;28;20017;-64
2021/05/30 04:34:36;;;;;;;28.52;12.32;;;11.20;99.90;;;;;;5027174;28;20033;-64
2021/05/30 04:37:03;;;;;;;41.42;16.48;;;11.20;99.90;;;;;;5021722;28;20090;-64
2021/05/30 04:39:31;;;;;;;26.42;11.00;;;11.30;99.90;;;;;;5034290;28;20032;-64
2021/05/30 04:41:58;;;;;;;27.08;11.77;;;11.40;99.90;;;;;;5030688;28;20033;-64
2021/05/30 04:44:25;;;;;;;31.55;12.55;;;11.50;99.90;;;;;;5029249;28;20601;-64
2021/05/30 04:46:51;;;;;;;34.40;12.85;;;11.60;99.90;;;;;;5031297;28;20135;-63
2021/05/30 04:49:17;;;;;;;26.40;10.63;;;11.70;99.90;;;;;;5031015;28;20040;-63
2021/05/30 04:51:43;;;;;;;26.95;10.98;;;11.70;99.90;;;;;;5032534;28;20124;-64
2021/05/30 04:54:09;;;;;;;27.35;11.18;;;11.80;99.90;;;;;;5021437;28;20667;-64
2021/05/30 04:56:35;;;;;;;35.70;12.68;;;11.90;99.90;;;;;;5031649;28;20036;-64
2021/05/30 04:59:00;;;;;;;30.83;10.68;;;11.90;99.90;;;;;;5026084;28;20299;-63
2021/05/30 05:01:26;;;;;;;27.95;10.00;;;12.00;99.90;;;;;;5027107;28;20040;-63
2021/05/30 05:03:52;;;;;;;31.38;10.90;;;12.00;99.90;;;;;;5023158;28;20045;-63
2021/05/30 05:06:18;;;;;;;27.17;11.18;;;12.00;99.90;;;;;;5030906;28;20066;-64
2021/05/30 05:08:44;;;;;;;27.67;10.68;;;12.00;99.90;;;;;;5033880;28;20058;-64
2021/05/30 05:11:09;;;;;;;32.58;11.90;;;12.10;99.90;;;;;;5038328;28;20033;-64
2021/05/30 05:13:36;;;;;;;23.83;10.82;;;12.00;99.90;;;;;;5033486;28;20098;-64
2021/05/30 05:16:02;;;;;;;25.58;11.07;;;12.10;99.90;;;;;;5032538;28;20365;-64
2021/05/30 05:18:32;;;;;;;33.08;12.45;;;12.10;99.90;;;;;;5035367;28;20025;-64
2021/05/30 05:20:58;;;;;;;28.25;12.27;;;12.20;99.90;;;;;;5032165;28;20029;-64
2021/05/30 05:23:25;;;;;;;28.55;10.25;;;12.30;99.90;;;;;;5035677;28;20066;-64
2021/05/30 05:25:53;;;;;;;31.35;9.98;;;12.30;99.90;;;;;;5027715;28;20029;-64
2021/05/30 05:28:19;;;;;;;25.38;9.32;;;12.30;99.90;;;;;;5032107;28;20287;-64
2021/05/30 05:30:45;;;;;;;30.58;10.05;;;12.30;99.90;;;;;;5027903;28;20033;-64
2021/05/30 05:33:11;;;;;;;28.92;9.45;;;12.20;99.90;;;;;;5034905;28;20028;-64
2021/05/30 05:35:38;;;;;;;31.70;10.77;;;12.20;99.90;;;;;;5028829;28;20447;-64
2021/05/30 05:38:04;;;;;;;35.03;11.43;;;12.40;99.90;;;;;;5037053;28;20056;-64
2021/05/30 05:40:30;;;;;;;25.88;9.30;;;12.70;99.90;;;;;;5035175;28;20033;-64
2021/05/30 05:42:56;;;;;;;26.98;9.77;;;12.90;99.90;;;;;;5037624;28;20024;-64
2021/05/30 05:45:23;;;;;;;23.88;9.23;;;12.90;99.90;;;;;;5034673;28;20037;-65
2021/05/30 05:47:50;;;;;;;23.88;8.63;;;12.90;99.90;;;;;;5019432;28;20029;-64
2021/05/30 05:50:18;;;;;;;24.00;8.85;;;13.00;99.90;;;;;;5034817;28;20474;-64
2021/05/30 05:52:44;;;;;;;29.38;9.20;;;13.30;99.90;;;;;;5035755;28;20021;-64
2021/05/30 05:55:11;;;;;;;29.75;8.60;;;13.60;99.90;;;;;;5029900;28;20082;-64
2021/05/30 05:57:39;;;;;;;22.85;7.93;;;13.60;99.90;;;;;;5032773;28;20187;-64
2021/05/30 06:00:08;;;;;;;28.77;9.15;;;13.70;99.90;;;;;;5033892;28;20032;-64
2021/05/30 06:02:33;;;;;;;16.80;7.90;;;13.70;99.90;;;;;;5033189;28;20025;-64
2021/05/30 06:04:59;;;;;;;17.77;8.57;;;13.70;99.90;;;;;;5036410;28;20041;-64
2021/05/30 06:07:26;;;;;;;21.73;9.00;;;13.90;99.90;;;;;;5035714;28;20435;-65
2021/05/30 06:09:51;;;;;;;21.48;7.30;;;14.10;99.90;;;;;;5032559;28;20072;-65
2021/05/30 06:12:18;;;;;;;23.20;8.45;;;14.20;99.90;;;;;;5030720;28;20181;-65
2021/05/30 06:14:45;;;;;;;22.15;7.85;;;14.40;99.90;;;;;;5033761;28;20071;-65
2021/05/30 06:17:12;;;;;;;23.15;8.07;;;14.50;99.90;;;;;;5017231;28;20596;-65
2021/05/30 06:19:38;;;;;;;22.10;7.95;;;14.40;99.90;;;;;;5021922;28;20041;-65
2021/05/30 06:22:05;;;;;;;24.98;8.45;;;14.30;99.90;;;;;;5028837;28;20033;-65
2021/05/30 06:24:35;;;;;;;17.17;7.50;;;14.30;99.90;;;;;;5034366;28;20444;-64
2021/05/30 06:27:01;;;;;;;;;;;14.50;99.90;;;;;;5029317;28;20430;-65
2021/05/30 06:29:27;;;;;;;25.13;7.38;;;14.50;99.90;;;;;;5031013;28;20234;-65
2021/05/30 06:31:54;;;;;;;21.20;6.78;;;14.90;99.90;;;;;;5031198;28;20021;-65
2021/05/30 06:34:20;;;;;;;20.30;7.65;;;14.90;99.90;;;;;;5026772;28;20033;-65
2021/05/30 06:36:48;;;;;;;17.58;6.85;;;15.00;99.90;;;;;;5030252;28;20116;-65
2021/05/30 06:39:14;;;;;;;18.65;6.55;;;15.00;99.90;;;;;;5030012;28;20391;-65
2021/05/30 06:41:40;;;;;;;18.52;6.72;;;15.00;99.90;;;;;;5033999;28;20062;-65
2021/05/30 06:44:06;;;;;;;26.23;8.10;;;14.90;99.90;;;;;;5029472;28;20116;-65
2021/05/30 06:46:33;;;;;;;23.73;8.13;;;15.10;99.90;;;;;;5033800;28;20534;-65
2021/05/30 06:48:59;;;;;;;20.80;6.90;;;15.20;99.90;;;;;;5034295;28;20111;-65
2021/05/30 06:51:34;;;;;;;23.40;7.88;;;15.10;99.90;;;;;;5030389;28;20557;-64
2021/05/30 06:54:01;;;;;;;15.90;7.03;;;14.80;99.90;;;;;;5031268;28;20033;-65
2021/05/30 06:56:28;;;;;;;26.92;8.23;;;14.80;99.90;;;;;;5017772;28;20028;-65
2021/05/30 06:58:54;;;;;;;23.13;7.57;;;15.10;99.90;;;;;;5027520;28;20056;-63
2021/05/30 07:01:20;;;;;;;25.70;8.57;;;15.20;99.90;;;;;;5030941;28;20361;-63
2021/05/30 07:03:47;;;;;;;17.05;5.68;;;15.40;99.90;;;;;;5007276;28;20037;-63
2021/05/30 07:06:14;;;;;;;18.98;6.43;;;15.80;99.90;;;;;;5010230;28;20028;-64
2021/05/30 07:08:40;;;;;;;20.95;7.03;;;16.00;99.90;;;;;;5031510;28;20425;-64
2021/05/30 07:11:06;;;;;;;24.23;7.60;;;16.30;99.90;;;;;;5009181;28;20028;-64
2021/05/30 07:13:32;;;;;;;21.50;7.38;;;16.40;99.90;;;;;;5029326;28;20037;-63
2021/05/30 07:15:58;;;;;;;22.30;7.60;;;16.20;99.90;;;;;;5029323;28;20033;-64
2021/05/30 07:18:24;;;;;;;22.95;8.00;;;16.00;99.90;;;;;;5029264;28;20029;-64
2021/05/30 07:20:52;;;;;;;21.30;6.72;;;15.70;99.90;;;;;;5033361;28;20075;-64
2021/05/30 07:23:20;;;;;;;17.43;6.47;;;15.60;99.90;;;;;;5023832;28;20060;-64
2021/05/30 07:25:46;;;;;;;15.23;7.00;;;15.60;99.90;;;;;;5031300;28;20043;-64
2021/05/30 07:28:12;;;;;;;21.08;6.57;;;15.50;99.90;;;;;;5023041;28;20043;-65
2021/05/30 07:30:38;;;;;;;20.58;7.13;;;15.60;99.90;;;;;;5028439;28;20037;-65
2021/05/30 07:33:04;;;;;;;20.60;6.80;;;15.50;99.90;;;;;;5033054;28;20078;-65
2021/05/30 07:35:31;;;;;;;23.25;7.60;;;15.40;99.90;;;;;;5006334;28;20033;-65
2021/05/30 07:37:57;;;;;;;26.85;8.10;;;15.60;99.90;;;;;;5024494;28;20024;-62
2021/05/30 07:40:24;;;;;;;17.27;6.57;;;15.90;99.90;;;;;;5030841;28;20033;-65
2021/05/30 07:42:50;;;;;;;20.42;7.43;;;15.90;99.90;;;;;;5030624;28;20025;-65
2021/05/30 07:45:18;;;;;;;24.73;8.07;;;16.20;99.90;;;;;;5026859;28;20036;-63
2021/05/30 07:47:44;;;;;;;18.80;6.35;;;16.40;99.90;;;;;;5028786;28;20032;-65
2021/05/30 07:50:11;;;;;;;24.70;6.68;;;16.40;99.90;;;;;;5031417;28;20040;-65
2021/05/30 07:52:40;;;;;;;21.08;7.35;;;16.40;99.90;;;;;;5033683;28;20059;-65
2021/05/30 07:55:07;;;;;;;22.92;7.15;;;16.20;99.90;;;;;;5014194;28;20037;-65
2021/05/30 07:57:33;;;;;;;23.50;7.05;;;16.30;99.90;;;;;;5017618;28;20594;-63
2021/05/30 07:59:59;;;;;;;17.55;6.28;;;16.60;99.90;;;;;;5013948;28;20492;-62
2021/05/30 08:02:25;;;;;;;21.95;6.38;;;17.00;99.90;;;;;;5018928;28;20155;-65
2021/05/30 08:04:56;;;;;;;22.27;7.45;;;16.70;99.90;;;;;;5012127;28;20037;-63
2021/05/30 08:07:22;;;;;;;22.88;6.55;;;17.00;99.90;;;;;;5013437;28;20049;-64
2021/05/30 08:09:48;;;;;;;18.67;5.85;;;17.40;99.90;;;;;;5017036;28;20044;-63
2021/05/30 08:12:14;;;;;;;17.95;5.78;;;17.50;99.90;;;;;;5024428;28;20155;-63
2021/05/30 08:14:41;;;;;;;22.77;6.60;;;17.70;99.90;;;;;;5024061;28;20038;-63
2021/05/30 08:17:07;;;;;;;17.98;6.22;;;17.90;99.90;;;;;;5032872;28;20036;-63
2021/05/30 08:19:34;;;;;;;22.15;5.43;;;18.40;99.90;;;;;;5030860;28;20033;-63
2021/05/30 08:22:00;;;;;;;24.90;6.15;;;18.50;99.90;;;;;;5029961;28;20286;-63
2021/05/30 08:24:26;;;;;;;19.30;6.68;;;18.60;99.90;;;;;;5026849;28;20529;-63
2021/05/30 08:26:53;;;;;;;16.58;5.55;;;18.60;99.90;;;;;;5032517;28;20043;-63
2021/05/30 08:29:22;;;;;;;18.85;6.53;;;18.40;99.90;;;;;;5025391;28;20029;-63
2021/05/30 08:31:51;;;;;;;19.05;6.50;;;18.20;99.90;;;;;;5027456;28;20112;-63
2021/05/30 08:34:17;;;;;;;18.88;6.05;;;18.10;99.90;;;;;;5017178;28;20388;-63
2021/05/30 08:36:43;;;;;;;28.05;7.10;;;18.20;99.90;;;;;;5023415;28;20140;-63
2021/05/30 08:39:09;;;;;;;22.58;5.93;;;18.30;99.90;;;;;;5013298;28;20029;-63
2021/05/30 08:41:37;;;;;;;21.88;6.65;;;18.40;99.90;;;;;;5023933;28;20189;-64
2021/05/30 08:44:03;;;;;;;18.05;6.35;;;18.70;99.90;;;;;;5021529;28;20036;-64
2021/05/30 08:46:30;;;;;;;24.95;7.07;;;18.80;99.90;;;;;;5023922;28;20041;-63
2021/05/30 08:48:57;;;;;;;16.30;6.10;;;18.90;99.90;;;;;;5027111;28;20098;-74
2021/05/30 08:51:23;;;;;;;17.67;6.47;;;18.70;99.90;;;;;;5018132;28;20116;-74
2021/05/30 08:53:49;;;;;;;25.52;6.85;;;19.00;99.90;;;;;;5023833;28;20112;-74
2021/05/30 08:56:17;;;;;;;20.17;7.05;;;19.00;99.90;;;;;;5027579;28;20033;-75
2021/05/30 08:58:48;;;;;;;24.90;6.93;;;18.70;99.90;;;;;;5032174;28;20033;-74
2021/05/30 09:01:15;;;;;;;24.15;7.35;;;18.50;99.90;;;;;;5034415;28;20021;-75
2021/05/30 09:04:04;;;;;;;18.42;6.28;;;18.70;99.90;;;;;;5033922;28;20090;-74
2021/05/30 09:06:30;;;;;;;22.83;6.10;;;18.80;99.90;;;;;;5037333;28;20028;-74
2021/05/30 09:08:57;;;;;;;14.05;5.85;;;19.00;99.90;;;;;;5029953;28;20288;-74
2021/05/30 09:11:43;;;;;;;17.10;6.13;;;19.40;99.90;;;;;;5036206;28;20327;-73
2021/05/30 09:14:18;;;;;;;15.35;5.90;;;19.20;99.90;;;;;;5034688;28;20311;-74
2021/05/30 09:16:57;;;;;;;22.13;6.72;;;19.40;99.90;;;;;;5036278;28;20021;-73
2021/05/30 09:19:38;;;;;;;22.05;6.13;;;19.70;99.90;;;;;;5011532;28;20033;-75
2021/05/30 09:22:30;;;;;;;20.85;7.28;;;19.60;99.90;;;;;;5035080;28;20024;-75
2021/05/30 09:25:18;;;;;;;14.23;5.97;;;19.20;99.90;;;;;;5033026;28;20049;-75
2021/05/30 09:27:45;;;;;;;17.90;6.30;;;19.30;99.90;;;;;;5031491;28;20049;-75
2021/05/30 09:30:19;;;;;;;19.00;6.10;;;18.90;99.90;;;;;;5034208;28;20037;-75
2021/05/30 09:32:57;;;;;;;20.90;6.28;;;19.10;99.90;;;;;;5034823;28;20118;-74
2021/05/30 09:35:29;;;;;;;18.40;7.38;;;19.70;99.90;;;;;;5035368;28;20021;-75
2021/05/30 09:38:07;;;;;;;19.77;6.18;;;19.80;99.90;;;;;;5037362;28;20478;-75
2021/05/30 09:40:49;;;;;;;21.85;6.57;;;19.50;99.90;;;;;;5031894;28;20079;-74
2021/05/30 09:43:18;;;;;;;21.30;6.50;;;19.50;99.90;;;;;;5034729;28;20314;-75
2021/05/30 09:45:59;;;;;;;19.27;5.43;;;19.70;99.90;;;;;;5033885;28;20119;-76
2021/05/30 09:48:25;;;;;;;19.00;7.32;;;19.60;99.90;;;;;;5034993;28;20044;-75
2021/05/30 09:51:08;;;;;;;20.75;7.30;;;19.50;99.90;;;;;;5018832;28;20457;-75
2021/05/30 09:53:43;;;;;;;18.80;6.90;;;19.70;99.90;;;;;;5037682;28;20037;-75
2021/05/30 09:56:37;;;;;;;18.58;7.03;;;20.20;99.90;;;;;;5034563;28;20417;-76
2021/05/30 09:59:14;;;;;;;17.30;5.70;;;20.40;99.90;;;;;;5031853;28;20027;-76
2021/05/30 10:01:55;;;;;;;13.57;5.43;;;20.10;99.90;;;;;;5035034;28;20094;-76
2021/05/30 10:04:22;;;;;;;18.75;6.93;;;20.10;99.90;;;;;;5035033;28;20132;-75
2021/05/30 10:06:49;;;;;;;18.50;6.25;;;20.30;99.90;;;;;;5027261;28;20131;-76
2021/05/30 10:09:15;;;;;;;19.15;6.13;;;20.70;99.90;;;;;;5032544;28;20278;-77
2021/05/30 10:11:42;;;;;;;21.48;6.65;;;20.60;99.90;;;;;;5037496;28;20122;-77
2021/05/30 10:14:09;;;;;;;34.47;11.70;;;20.40;99.90;;;;;;5035708;28;20064;-76
2021/05/30 10:16:36;;;;;;;21.95;6.63;;;19.90;99.90;;;;;;5035817;28;20037;-76
2021/05/30 10:19:21;;;;;;;24.02;8.77;;;19.40;99.90;;;;;;5034428;28;20067;-76
2021/05/30 10:21:53;;;;;;;20.45;7.43;;;19.20;99.90;;;;;;5034187;28;20033;-76
2021/05/30 10:24:21;;;;;;;16.85;7.03;;;19.20;99.90;;;;;;5033511;28;20122;-76
2021/05/30 10:27:09;;;;;;;18.40;6.70;;;19.30;99.90;;;;;;5013330;28;20459;-76
2021/05/30 10:29:34;;;;;;;16.10;6.07;;;19.70;99.90;;;;;;5031630;28;20059;-76
2021/05/30 10:32:17;;;;;;;21.73;7.20;;;19.90;99.90;;;;;;5033723;28;20033;-76
2021/05/30 10:35:09;;;;;;;22.52;6.95;;;20.00;99.90;;;;;;5035146;28;20128;-77
2021/05/30 10:37:41;;;;;;;22.35;8.15;;;19.70;99.90;;;;;;5024210;28;20045;-77
2021/05/30 10:40:22;;;;;;;24.13;9.35;;;19.60;99.90;;;;;;5035154;28;20029;-76
2021/05/30 10:43:13;;;;;;;17.67;7.30;;;19.60;99.90;;;;;;5032050;28;20492;-76
2021/05/30 10:45:42;;;;;;;15.35;6.53;;;19.70;99.90;;;;;;5033239;28;20033;-77
2021/05/30 10:48:09;;;;;;;17.05;6.90;;;20.20;99.90;;;;;;5026671;28;20033;-77
2021/05/30 10:50:37;;;;;;;19.17;7.25;;;21.10;99.90;;;;;;5019581;28;20559;-77
2021/05/30 10:53:04;;;;;;;19.67;7.00;;;21.30;99.90;;;;;;5024790;28;20114;-67
2021/05/30 10:55:32;;;;;;;14.07;5.55;;;21.10;99.90;;;;;;5021362;28;20051;-75
2021/05/30 10:58:14;;;;;;;19.40;6.90;;;21.00;99.90;;;;;;5025544;28;20379;-74
2021/05/30 11:00:40;;;;;;;20.27;6.50;;;20.80;99.90;;;;;;5025107;28;20029;-75
2021/05/30 11:03:10;;;;;;;17.13;6.07;;;21.10;99.90;;;;;;5023084;28;20392;-76
2021/05/30 11:05:45;;;;;;;15.23;6.47;;;20.80;99.90;;;;;;5024962;28;20303;-75
2021/05/30 11:08:37;;;;;;;24.50;8.93;;;21.00;99.90;;;;;;5026795;28;20377;-76
2021/05/30 11:11:24;;;;;;;22.98;7.75;;;21.10;99.90;;;;;;5028544;28;20033;-75
2021/05/30 11:13:54;;;;;;;16.25;6.00;;;20.90;99.90;;;;;;5034024;28;20623;-76
2021/05/30 11:16:21;;;;;;;;;;;20.10;99.90;;;;;;5032655;28;20056;-76
2021/05/30 11:19:07;;;;;;;15.88;7.47;;;19.60;99.90;;;;;;5020815;28;19916;-75
2021/05/30 11:21:48;;;;;;;18.08;6.35;;;19.30;99.90;;;;;;5026193;28;20029;-75
2021/05/30 11:24:16;;;;;;;23.40;7.60;;;19.20;99.90;;;;;;5030961;28;20048;-76
2021/05/30 11:27:02;;;;;;;23.15;8.40;;;19.50;99.90;;;;;;5028974;28;20108;-75
2021/05/30 11:29:29;;;;;;;22.70;7.05;;;19.70;99.90;;;;;;5025285;28;20448;-74
2021/05/30 11:31:56;;;;;;;22.88;7.60;;;19.70;99.90;;;;;;5032096;28;20052;-75
2021/05/30 11:34:32;;;;;;;22.63;7.47;;;20.00;99.90;;;;;;5012626;28;20595;-74
2021/05/30 11:37:11;;;;;;;22.05;7.45;;;20.40;99.90;;;;;;5033594;28;20033;-80
2021/05/30 11:39:38;;;;;;;23.83;7.63;;;20.30;99.90;;;;;;5030227;28;20390;-80
2021/05/30 11:42:05;;;;;;;22.45;8.70;;;20.20;99.90;;;;;;5025050;28;20105;-78
2021/05/30 11:44:32;;;;;;;21.25;7.50;;;20.00;99.90;;;;;;5029136;28;20080;-78
2021/05/30 11:47:04;;;;;;;21.38;8.18;;;19.90;99.90;;;;;;5018993;28;20104;-77
2021/05/30 11:49:38;;;;;;;25.88;9.07;;;20.40;99.90;;;;;;5024154;28;20029;-78
2021/05/30 11:52:16;;;;;;;25.83;7.65;;;20.40;99.90;;;;;;5032638;28;20060;-78
2021/05/30 11:54:42;;;;;;;14.85;6.82;;;20.40;99.90;;;;;;5027329;28;20441;-78
2021/05/30 11:57:09;;;;;;;21.00;7.43;;;20.30;99.90;;;;;;5019779;28;20030;-79
2021/05/30 11:59:38;;;;;;;17.77;6.88;;;20.30;99.90;;;;;;5014485;28;20032;-79
2021/05/30 12:02:04;;;;;;;17.27;6.70;;;20.10;99.90;;;;;;5015197;28;20609;-80
2021/05/30 12:04:37;;;;;;;23.00;7.68;;;19.90;99.90;;;;;;5011796;28;20060;-63
2021/05/30 12:07:14;;;;;;;15.38;6.65;;;20.10;99.90;;;;;;5014550;28;20589;-63
2021/05/30 12:09:55;;;;;;;18.80;7.88;;;20.60;99.90;;;;;;5018969;28;20599;-63
2021/05/30 12:12:44;;;;;;;20.27;8.35;;;20.60;99.90;;;;;;5021918;28;20516;-63
2021/05/30 12:15:22;;;;;;;17.52;7.72;;;20.90;99.90;;;;;;5023829;28;20056;-64
2021/05/30 12:17:51;;;;;;;22.38;7.57;;;21.20;99.90;;;;;;5014785;28;20469;-64
2021/05/30 12:20:32;;;;;;;16.38;7.35;;;21.10;99.90;;;;;;5024796;28;20060;-63
2021/05/30 12:23:20;;;;;;;18.33;7.10;;;21.40;99.90;;;;;;5024407;28;20080;-63
2021/05/30 12:25:47;;;;;;;25.40;10.75;;;21.60;99.90;;;;;;5025605;28;20060;-63
2021/05/30 12:28:14;;;;;;;18.38;7.03;;;21.90;99.90;;;;;;5028376;28;20544;-62
2021/05/30 12:30:39;;;;;;;15.30;7.45;;;21.30;99.90;;;;;;5027268;28;20032;-63
2021/05/30 12:33:06;;;;;;;22.58;8.07;;;21.20;99.90;;;;;;5022880;28;20405;-62
2021/05/30 12:35:46;;;;;;;18.13;6.60;;;20.80;99.90;;;;;;5024034;28;20037;-63
2021/05/30 12:38:31;;;;;;;21.17;8.57;;;20.80;99.90;;;;;;5022215;28;20037;-62
2021/05/30 12:40:56;;;;;;;18.67;8.15;;;20.70;99.90;;;;;;5022144;28;20033;-62
2021/05/30 12:43:37;;;;;;;17.35;8.18;;;20.20;99.90;;;;;;5022998;28;20555;-63